Time;durP1;ratioP1;P1;durP2;ratioP2;P2;SDS_P1;SDS_P2;PMS_P1;PMS_P2;Temp;Humidity;BMP_temperature;BMP_pressure;BME280_temperature;BME280_humidity;BME280_pressure;Samples;Min_cycle;Max_cycle;Signal;HPM_P1;HPM_P2
2022/10/14 00:00:41;;;;;;;35.47;24.42;;;15.20;99.90;;;;;;5055329;28;20031;-67
2022/10/14 00:03:07;;;;;;;29.33;23.17;;;15.10;99.90;;;;;;5072861;28;20024;-67
2022/10/14 00:05:33;;;;;;;28.90;22.83;;;15.10;99.90;;;;;;5073162;28;20351;-68
2022/10/14 00:07:59;;;;;;;33.63;24.48;;;15.00;99.90;;;;;;5072076;28;20028;-67
2022/10/14 00:10:24;;;;;;;27.77;23.17;;;15.10;99.90;;;;;;5072905;28;20032;-67
2022/10/14 00:12:50;;;;;;;34.15;25.23;;;15.20;99.90;;;;;;5073163;28;20060;-67
2022/10/14 00:15:17;;;;;;;33.25;24.02;;;15.10;99.90;;;;;;5073048;28;20089;-68
2022/10/14 00:17:43;;;;;;;32.13;25.15;;;15.20;99.90;;;;;;5055121;28;20075;-67
2022/10/14 00:20:08;;;;;;;34.97;25.48;;;15.10;99.90;;;;;;5055014;28;20064;-67
2022/10/14 00:22:34;;;;;;;33.95;25.00;;;15.10;99.90;;;;;;5072832;28;20024;-67
2022/10/14 00:25:00;;;;;;;33.80;25.73;;;15.00;99.90;;;;;;5072632;28;20047;-67
2022/10/14 00:27:26;;;;;;;35.53;24.45;;;15.00;99.90;;;;;;5071712;28;20033;-67
2022/10/14 00:29:51;;;;;;;37.78;25.05;;;15.10;99.90;;;;;;5072275;28;20036;-67
2022/10/14 00:32:17;;;;;;;33.67;25.25;;;15.10;99.90;;;;;;5072604;28;20029;-67
2022/10/14 00:34:43;;;;;;;37.13;26.10;;;15.00;99.90;;;;;;5072468;28;20071;-67
2022/10/14 00:37:09;;;;;;;37.80;27.30;;;15.00;99.90;;;;;;5054231;28;20028;-67
2022/10/14 00:39:35;;;;;;;37.95;27.52;;;15.10;99.90;;;;;;5072864;28;20025;-67
2022/10/14 00:42:01;;;;;;;35.60;26.05;;;15.00;99.90;;;;;;5054781;28;20036;-67
2022/10/14 00:44:26;;;;;;;41.08;26.52;;;15.00;99.90;;;;;;5072337;28;20473;-67
2022/10/14 00:46:53;;;;;;;37.80;27.27;;;14.90;99.90;;;;;;5072436;28;20082;-67
2022/10/14 00:49:35;;;;;;;40.42;27.17;;;15.00;99.90;;;;;;5054699;28;20515;-67
2022/10/14 00:52:05;;;;;;;36.75;27.02;;;15.00;99.90;;;;;;5072949;28;20384;-67
2022/10/14 00:54:43;;;;;;;39.83;27.10;;;15.00;99.90;;;;;;5072630;28;20055;-67
2022/10/14 00:57:09;;;;;;;38.10;27.73;;;15.10;99.90;;;;;;5054324;28;20048;-67
2022/10/14 00:59:36;;;;;;;41.15;28.23;;;15.00;99.90;;;;;;5072007;28;20032;-66
2022/10/14 01:02:03;;;;;;;37.70;27.30;;;14.80;99.90;;;;;;5054504;28;20086;-66
2022/10/14 01:04:29;;;;;;;45.28;28.38;;;14.80;99.90;;;;;;5072392;28;20507;-66
2022/10/14 01:07:29;;;;;;;46.85;29.52;;;14.90;99.90;;;;;;5072583;28;20024;-66
2022/10/14 01:10:03;;;;;;;39.22;28.38;;;15.10;99.90;;;;;;5072337;28;20113;-67
2022/10/14 01:13:07;;;;;;;43.92;31.05;;;14.90;99.90;;;;;;5072283;28;20028;-66
2022/10/14 01:15:56;;;;;;;42.53;29.48;;;14.80;99.90;;;;;;5051230;28;20032;-67
2022/10/14 01:18:57;;;;;;;39.63;29.45;;;14.80;99.90;;;;;;5061045;28;20036;-67
2022/10/14 01:21:34;;;;;;;41.22;29.17;;;15.00;99.90;;;;;;5065368;28;20047;-67
2022/10/14 01:24:19;;;;;;;41.35;31.08;;;15.10;99.90;;;;;;5058371;28;20489;-67
2022/10/14 01:27:09;;;;;;;40.65;29.48;;;14.90;99.90;;;;;;5057787;28;20064;-67
2022/10/14 01:29:54;;;;;;;46.17;30.20;;;14.80;99.90;;;;;;5057859;28;20508;-66
2022/10/14 01:32:27;;;;;;;40.72;29.27;;;15.00;99.90;;;;;;5044564;28;20032;-67
2022/10/14 01:35:00;;;;;;;42.80;30.88;;;14.90;99.90;;;;;;5075855;28;20025;-67
2022/10/14 01:37:28;;;;;;;39.58;29.30;;;15.00;99.90;;;;;;5075742;28;20044;-66
2022/10/14 01:40:04;;;;;;;39.90;29.02;;;15.00;99.90;;;;;;5057969;28;20461;-67
2022/10/14 01:42:33;;;;;;;43.45;29.73;;;15.00;99.90;;;;;;5075637;28;20035;-67
2022/10/14 01:45:17;;;;;;;41.42;28.48;;;15.00;99.90;;;;;;5057800;28;20036;-69
2022/10/14 01:47:44;;;;;;;39.92;28.73;;;14.90;99.90;;;;;;5075909;28;20032;-68
2022/10/14 01:50:17;;;;;;;40.67;29.05;;;14.90;99.90;;;;;;5057743;28;20020;-68
2022/10/14 01:52:48;;;;;;;41.33;30.58;;;15.00;99.90;;;;;;5057820;28;20031;-68
2022/10/14 01:55:19;;;;;;;43.78;30.95;;;15.00;99.90;;;;;;5057638;28;20031;-70
2022/10/14 01:57:48;;;;;;;47.15;30.35;;;14.90;99.90;;;;;;5057303;28;20044;-68
2022/10/14 02:00:15;;;;;;;46.05;29.58;;;14.90;99.90;;;;;;5037743;28;20029;-67
2022/10/14 02:02:41;;;;;;;49.15;30.27;;;14.90;99.90;;;;;;5055801;28;20029;-67
2022/10/14 02:05:21;;;;;;;45.40;30.42;;;14.90;99.90;;;;;;5076732;28;20035;-67
2022/10/14 02:08:03;;;;;;;41.85;28.42;;;15.00;99.90;;;;;;5057628;28;20020;-67
2022/10/14 02:11:04;;;;;;;42.08;29.65;;;15.00;99.90;;;;;;5057283;28;20101;-67
2022/10/14 02:13:38;;;;;;;48.92;30.45;;;14.90;99.90;;;;;;5075111;28;20017;-67
2022/10/14 02:16:20;;;;;;;41.15;29.50;;;14.90;99.90;;;;;;5057341;28;20044;-67
2022/10/14 02:19:01;;;;;;;46.10;30.15;;;14.80;99.90;;;;;;5057020;28;20562;-67
2022/10/14 02:21:36;;;;;;;41.67;29.90;;;14.90;99.90;;;;;;5057119;28;20025;-67
2022/10/14 02:24:18;;;;;;;42.42;30.17;;;14.80;99.90;;;;;;5057112;28;20029;-67
2022/10/14 02:26:46;;;;;;;41.92;28.08;;;14.70;99.90;;;;;;5074469;28;20017;-66
2022/10/14 02:29:13;;;;;;;51.28;30.42;;;14.70;99.90;;;;;;5056078;28;20036;-67
2022/10/14 02:31:43;;;;;;;46.20;29.80;;;14.80;99.90;;;;;;5074520;28;20500;-67
2022/10/14 02:34:15;;;;;;;48.95;29.35;;;14.80;99.90;;;;;;5056951;28;20044;-67
2022/10/14 02:36:42;;;;;;;50.63;30.42;;;14.70;99.90;;;;;;5056929;28;20033;-67
2022/10/14 02:39:13;;;;;;;47.33;29.63;;;14.80;99.90;;;;;;5056694;28;20025;-68
2022/10/14 02:41:39;;;;;;;41.85;28.65;;;14.70;99.90;;;;;;5074503;28;20024;-67
2022/10/14 02:44:07;;;;;;;48.55;29.48;;;14.80;99.90;;;;;;5056769;28;20044;-67
2022/10/14 02:46:34;;;;;;;45.67;28.90;;;14.80;99.90;;;;;;5056759;28;20111;-67
2022/10/14 02:49:00;;;;;;;44.67;28.58;;;14.80;99.90;;;;;;5056846;28;20031;-67
2022/10/14 02:51:26;;;;;;;43.47;29.02;;;14.80;99.90;;;;;;5056559;28;20025;-67
2022/10/14 02:53:52;;;;;;;41.65;28.23;;;14.90;99.90;;;;;;5056489;28;20349;-67
2022/10/14 02:56:18;;;;;;;41.97;28.30;;;14.90;99.90;;;;;;5039688;28;20033;-67
2022/10/14 02:58:43;;;;;;;44.78;28.63;;;15.00;99.90;;;;;;5056492;28;20044;-67
2022/10/14 03:01:09;;;;;;;49.28;29.02;;;14.90;99.90;;;;;;5074142;28;20027;-67
2022/10/14 03:03:35;;;;;;;49.35;28.90;;;14.90;99.90;;;;;;5056627;28;20028;-67
2022/10/14 03:06:02;;;;;;;43.70;28.30;;;15.00;99.90;;;;;;5056232;28;20024;-67
2022/10/14 03:08:29;;;;;;;52.40;26.98;;;15.00;99.90;;;;;;5056353;28;20021;-67
2022/10/14 03:10:57;;;;;;;47.70;28.88;;;15.10;99.90;;;;;;5048938;28;20021;-67
2022/10/14 03:13:23;;;;;;;41.17;28.35;;;15.20;99.90;;;;;;5055900;28;20025;-67
2022/10/14 03:15:50;;;;;;;39.90;25.85;;;15.10;99.90;;;;;;5074291;28;20527;-67
2022/10/14 03:18:17;;;;;;;42.17;26.77;;;15.10;99.90;;;;;;5056050;28;20059;-67
2022/10/14 03:20:46;;;;;;;39.42;25.80;;;15.10;99.90;;;;;;5056102;28;20024;-67
2022/10/14 03:23:17;;;;;;;49.78;28.00;;;15.10;99.90;;;;;;5055999;28;20016;-67
2022/10/14 03:25:47;;;;;;;39.20;26.05;;;15.20;99.90;;;;;;5055616;28;20029;-67
2022/10/14 03:28:19;;;;;;;39.95;26.77;;;15.00;99.90;;;;;;5040067;28;20067;-67
2022/10/14 03:31:08;;;;;;;38.47;25.73;;;14.90;99.90;;;;;;5055750;28;20082;-67
2022/10/14 03:33:53;;;;;;;46.30;26.00;;;14.80;99.90;;;;;;5073544;28;20413;-67
2022/10/14 03:36:18;;;;;;;48.03;26.77;;;14.80;99.90;;;;;;5073479;28;20021;-67
2022/10/14 03:38:49;;;;;;;41.40;25.48;;;14.90;99.90;;;;;;5055372;28;20040;-67
2022/10/14 03:41:31;;;;;;;40.45;26.17;;;15.00;99.90;;;;;;5055495;28;20032;-67
2022/10/14 03:43:57;;;;;;;43.90;25.55;;;15.00;99.90;;;;;;5055592;28;20024;-67
2022/10/14 03:46:23;;;;;;;42.30;25.88;;;15.00;99.90;;;;;;5055271;28;20025;-68
2022/10/14 03:48:51;;;;;;;49.67;25.60;;;14.80;99.90;;;;;;5055388;28;20401;-67
2022/10/14 03:51:17;;;;;;;41.42;25.27;;;14.90;99.90;;;;;;5055421;28;20031;-68
2022/10/14 03:53:45;;;;;;;42.17;25.83;;;14.90;99.90;;;;;;5055209;28;20070;-68
2022/10/14 03:56:12;;;;;;;41.42;25.00;;;14.80;99.90;;;;;;5055019;28;20052;-67
2022/10/14 03:58:39;;;;;;;40.72;25.65;;;14.90;99.90;;;;;;5055242;28;20131;-68
2022/10/14 04:01:10;;;;;;;42.60;25.03;;;14.90;99.90;;;;;;5055051;28;20120;-68
2022/10/14 04:03:56;;;;;;;40.28;25.60;;;14.90;99.90;;;;;;5072983;28;20064;-68
2022/10/14 04:06:24;;;;;;;48.78;25.55;;;15.00;99.90;;;;;;5054867;28;20020;-68
2022/10/14 04:08:55;;;;;;;40.88;26.60;;;14.90;99.90;;;;;;5072853;28;20021;-67
2022/10/14 04:11:28;;;;;;;46.55;26.05;;;14.90;99.90;;;;;;5054784;28;20021;-68
2022/10/14 04:14:00;;;;;;;40.88;24.63;;;14.90;99.90;;;;;;5055227;28;20027;-68
2022/10/14 04:16:28;;;;;;;42.42;25.90;;;14.90;99.90;;;;;;5038293;28;20085;-68
2022/10/14 04:19:01;;;;;;;46.33;25.95;;;14.90;99.90;;;;;;5055091;28;20078;-68
2022/10/14 04:21:26;;;;;;;42.70;24.50;;;15.00;99.90;;;;;;5054626;28;20032;-68
2022/10/14 04:23:53;;;;;;;34.35;24.17;;;15.00;99.90;;;;;;5054599;28;20028;-67
2022/10/14 04:26:30;;;;;;;40.75;24.45;;;15.10;99.90;;;;;;5054390;28;20024;-68
2022/10/14 04:28:57;;;;;;;42.65;24.73;;;15.00;99.90;;;;;;5054973;28;20059;-67
2022/10/14 04:31:37;;;;;;;39.67;24.40;;;14.90;99.90;;;;;;5054462;28;20016;-68
2022/10/14 04:34:03;;;;;;;42.95;23.98;;;14.90;99.90;;;;;;5054778;28;20435;-68
2022/10/14 04:36:34;;;;;;;38.25;24.02;;;14.90;99.90;;;;;;5038390;28;20017;-68
2022/10/14 04:39:02;;;;;;;41.03;23.23;;;15.00;99.90;;;;;;5054658;28;20115;-69
2022/10/14 04:41:28;;;;;;;39.50;22.70;;;15.00;99.90;;;;;;5054810;28;20082;-68
2022/10/14 04:43:57;;;;;;;36.88;23.40;;;15.00;99.90;;;;;;5054472;28;20021;-68
2022/10/14 04:46:30;;;;;;;;;;;15.00;99.90;;;;;;5055213;28;20052;-68
2022/10/14 04:48:56;;;;;;;33.85;21.77;;;15.10;99.90;;;;;;5072428;28;20293;-68
2022/10/14 04:51:25;;;;;;;39.78;23.55;;;15.10;99.90;;;;;;5054401;28;20075;-69
2022/10/14 04:54:09;;;;;;;35.85;21.05;;;15.20;99.90;;;;;;5071904;28;20071;-68
2022/10/14 04:56:45;;;;;;;36.90;22.08;;;15.20;99.90;;;;;;5054486;28;20039;-68
2022/10/14 04:59:12;;;;;;;30.90;20.60;;;15.10;99.90;;;;;;5054638;28;20044;-68
2022/10/14 05:02:04;;;;;;;32.47;20.98;;;15.00;99.90;;;;;;5069224;28;20033;-68
2022/10/14 05:04:45;;;;;;;32.97;21.73;;;15.10;99.90;;;;;;5054568;28;20020;-68
2022/10/14 05:07:11;;;;;;;33.10;20.13;;;15.10;99.90;;;;;;5054163;28;20414;-68
2022/10/14 05:09:37;;;;;;;34.63;19.17;;;14.90;99.90;;;;;;5054135;28;20016;-68
2022/10/14 05:12:05;;;;;;;32.13;19.48;;;14.90;99.90;;;;;;5054374;28;20492;-68
2022/10/14 05:14:42;;;;;;;29.63;19.52;;;14.90;99.90;;;;;;5054240;28;20058;-68
2022/10/14 05:17:17;;;;;;;30.65;18.90;;;15.00;99.90;;;;;;5054484;28;20027;-67
2022/10/14 05:19:42;;;;;;;28.23;20.02;;;15.10;99.90;;;;;;5072121;28;20033;-68
2022/10/14 05:22:09;;;;;;;31.27;19.55;;;15.20;99.90;;;;;;5053984;28;20021;-68
2022/10/14 05:24:40;;;;;;;30.53;19.80;;;15.10;99.90;;;;;;5053955;28;20035;-68
2022/10/14 05:27:06;;;;;;;31.48;20.38;;;15.20;99.90;;;;;;5054283;28;20279;-68
2022/10/14 05:29:33;;;;;;;27.38;17.73;;;15.10;99.90;;;;;;5037442;28;20365;-67
2022/10/14 05:31:59;;;;;;;32.20;19.10;;;15.10;99.90;;;;;;5054274;28;20023;-67
2022/10/14 05:34:41;;;;;;;29.88;18.50;;;15.10;99.90;;;;;;5053608;28;20507;-68
2022/10/14 05:37:11;;;;;;;27.05;18.42;;;15.10;99.90;;;;;;5053837;28;20028;-68
2022/10/14 05:39:48;;;;;;;28.40;18.52;;;15.00;99.90;;;;;;5054137;28;20032;-67
2022/10/14 05:42:17;;;;;;;27.20;17.45;;;15.00;99.90;;;;;;5054030;28;20439;-68
2022/10/14 05:44:43;;;;;;;30.40;17.17;;;15.00;99.90;;;;;;5054049;28;20162;-67
2022/10/14 05:47:10;;;;;;;25.08;17.42;;;15.00;99.90;;;;;;5071881;28;20432;-67
2022/10/14 05:49:36;;;;;;;28.60;17.60;;;14.90;99.90;;;;;;5053818;28;20017;-69
2022/10/14 05:52:04;;;;;;;24.00;16.20;;;14.90;99.90;;;;;;5054039;28;20021;-68
2022/10/14 05:54:31;;;;;;;26.95;18.20;;;14.90;99.90;;;;;;5053716;28;20354;-68
2022/10/14 05:56:57;;;;;;;28.95;17.73;;;14.80;99.90;;;;;;5053802;28;20040;-67
2022/10/14 05:59:24;;;;;;;26.05;18.15;;;14.80;99.90;;;;;;5053761;28;20090;-67
2022/10/14 06:01:51;;;;;;;26.45;18.02;;;14.90;99.90;;;;;;5053893;28;20036;-68
2022/10/14 06:04:20;;;;;;;27.55;18.70;;;14.80;99.90;;;;;;5053435;28;20027;-68
2022/10/14 06:06:45;;;;;;;26.80;17.90;;;14.80;99.90;;;;;;5075144;28;20019;-68
2022/10/14 06:09:13;;;;;;;27.33;17.48;;;14.80;99.90;;;;;;5057172;28;20028;-68
2022/10/14 06:11:39;;;;;;;22.95;16.90;;;14.80;99.90;;;;;;5057187;28;20020;-68
2022/10/14 06:14:05;;;;;;;27.42;17.98;;;14.70;99.90;;;;;;5057255;28;20024;-68
2022/10/14 06:16:31;;;;;;;24.67;16.45;;;14.70;99.90;;;;;;5057098;28;20032;-68
2022/10/14 06:19:00;;;;;;;28.92;18.10;;;14.90;99.90;;;;;;5056727;28;20090;-68
2022/10/14 06:21:26;;;;;;;24.85;16.92;;;14.90;99.90;;;;;;5044808;28;20017;-68
2022/10/14 06:23:52;;;;;;;27.27;17.58;;;14.80;99.90;;;;;;5064809;28;20040;-68
2022/10/14 06:26:18;;;;;;;21.92;16.15;;;15.00;99.90;;;;;;5071029;28;20044;-68
2022/10/14 06:28:44;;;;;;;22.77;17.17;;;14.90;99.90;;;;;;5073725;28;20013;-68
2022/10/14 06:31:09;;;;;;;24.80;17.05;;;14.90;99.90;;;;;;5055301;28;20032;-68
2022/10/14 06:33:35;;;;;;;28.27;15.88;;;14.90;99.90;;;;;;5073740;28;20070;-68
2022/10/14 06:36:02;;;;;;;24.75;16.42;;;14.80;99.90;;;;;;5073793;28;20460;-68
2022/10/14 06:38:28;;;;;;;24.58;16.40;;;14.90;99.90;;;;;;5074149;28;20097;-68
2022/10/14 06:40:54;;;;;;;24.05;17.40;;;14.90;99.90;;;;;;5069813;28;20028;-68
2022/10/14 06:43:21;;;;;;;20.52;15.45;;;14.90;99.90;;;;;;5071932;28;20441;-68
2022/10/14 06:45:47;;;;;;;20.63;15.48;;;14.90;99.90;;;;;;5076491;28;20043;-68
2022/10/14 06:48:13;;;;;;;24.50;16.20;;;14.80;99.90;;;;;;5073220;28;20469;-68
2022/10/14 06:50:40;;;;;;;22.55;15.07;;;14.90;99.90;;;;;;5073230;28;20039;-68
2022/10/14 06:53:06;;;;;;;22.02;15.15;;;14.80;99.90;;;;;;5055587;28;20017;-68
2022/10/14 06:55:31;;;;;;;22.58;15.35;;;14.90;99.90;;;;;;5054971;28;20672;-68
2022/10/14 06:57:57;;;;;;;23.40;15.75;;;14.90;99.90;;;;;;5072482;28;20036;-68
2022/10/14 07:00:24;;;;;;;27.15;16.60;;;15.00;99.90;;;;;;5056035;28;20024;-68
2022/10/14 07:02:49;;;;;;;24.20;14.80;;;15.10;99.90;;;;;;5073958;28;20027;-68
2022/10/14 07:05:15;;;;;;;28.58;15.82;;;15.10;99.90;;;;;;5055043;28;20366;-68
2022/10/14 07:07:41;;;;;;;22.17;15.27;;;15.10;99.90;;;;;;5073803;28;20033;-69
2022/10/14 07:10:07;;;;;;;18.33;14.23;;;15.00;99.90;;;;;;5073968;28;20033;-69
2022/10/14 07:12:33;;;;;;;18.13;13.55;;;15.10;99.90;;;;;;5074043;28;20035;-69
2022/10/14 07:14:58;;;;;;;17.58;14.18;;;15.00;99.90;;;;;;5046697;28;20029;-68
2022/10/14 07:17:24;;;;;;;18.65;12.90;;;15.10;99.90;;;;;;5073329;28;20040;-68
2022/10/14 07:19:50;;;;;;;17.67;12.65;;;15.20;99.90;;;;;;5073867;28;20096;-68
2022/10/14 07:22:16;;;;;;;16.95;11.90;;;15.10;99.90;;;;;;5040564;28;20037;-68
2022/10/14 07:24:42;;;;;;;17.35;11.43;;;15.20;99.90;;;;;;5070304;28;20020;-68
2022/10/14 07:27:09;;;;;;;15.80;11.68;;;15.20;99.90;;;;;;5073511;28;20033;-69
2022/10/14 07:29:35;;;;;;;15.52;11.30;;;15.20;99.90;;;;;;5073783;28;20055;-68
2022/10/14 07:32:01;;;;;;;15.40;10.95;;;15.20;99.90;;;;;;5073143;28;20025;-68
2022/10/14 07:34:26;;;;;;;15.25;10.32;;;15.10;99.90;;;;;;5073650;28;20374;-68
2022/10/14 07:36:52;;;;;;;12.52;10.18;;;15.10;99.90;;;;;;5073371;28;20093;-68
2022/10/14 07:39:18;;;;;;;15.93;12.05;;;15.00;99.90;;;;;;5073676;28;20473;-68
2022/10/14 07:41:44;;;;;;;14.45;10.98;;;15.10;99.90;;;;;;5055552;28;20445;-68
2022/10/14 07:44:12;;;;;;;14.50;11.20;;;15.10;99.90;;;;;;5073617;28;20413;-69
2022/10/14 07:46:41;;;;;;;14.75;11.23;;;15.10;99.90;;;;;;5073150;28;20029;-68
2022/10/14 07:49:18;;;;;;;16.23;11.52;;;15.00;99.90;;;;;;5073538;28;20020;-68
2022/10/14 07:51:45;;;;;;;15.45;11.75;;;15.00;99.90;;;;;;5073450;28;20103;-68
2022/10/14 07:54:20;;;;;;;17.67;11.15;;;14.90;99.90;;;;;;5073228;28;20021;-68
2022/10/14 07:56:49;;;;;;;18.13;11.55;;;15.00;99.90;;;;;;5072936;28;20024;-68
2022/10/14 07:59:17;;;;;;;18.23;11.75;;;15.00;99.90;;;;;;5073384;28;20115;-68
2022/10/14 08:01:46;;;;;;;17.20;11.98;;;15.10;99.90;;;;;;5072064;28;20016;-68
2022/10/14 08:04:11;;;;;;;16.45;11.35;;;15.10;99.90;;;;;;5064598;28;20166;-68
2022/10/14 08:06:37;;;;;;;21.60;12.57;;;15.10;99.90;;;;;;5072994;28;20048;-68
2022/10/14 08:09:04;;;;;;;14.50;11.13;;;15.10;99.90;;;;;;5072748;28;20028;-68
2022/10/14 08:11:30;;;;;;;15.60;11.50;;;15.10;99.90;;;;;;5061993;28;20167;-68
2022/10/14 08:13:58;;;;;;;15.15;10.90;;;15.10;99.90;;;;;;5067451;28;20103;-68
2022/10/14 08:16:26;;;;;;;15.38;11.73;;;15.00;99.90;;;;;;5071667;28;20426;-68
2022/10/14 08:18:55;;;;;;;17.75;11.63;;;15.00;99.90;;;;;;5071967;28;20071;-68
2022/10/14 08:21:21;;;;;;;13.95;10.07;;;15.10;99.90;;;;;;5050831;28;20052;-69
2022/10/14 08:23:47;;;;;;;16.15;10.90;;;15.20;99.90;;;;;;5071485;28;20024;-68
2022/10/14 08:26:25;;;;;;;17.92;9.68;;;15.20;99.90;;;;;;5071387;28;20089;-68
2022/10/14 08:28:50;;;;;;;12.50;9.98;;;15.20;99.90;;;;;;5070756;28;20072;-68
2022/10/14 08:31:16;;;;;;;14.48;9.52;;;15.40;99.90;;;;;;5071922;28;20102;-68
2022/10/14 08:33:43;;;;;;;11.93;9.48;;;15.20;99.90;;;;;;5071597;28;20465;-68
2022/10/14 08:36:09;;;;;;;17.42;9.88;;;15.30;99.90;;;;;;5053797;28;20094;-68
2022/10/14 08:38:34;;;;;;;14.10;8.68;;;15.40;99.90;;;;;;5071115;28;20378;-68
2022/10/14 08:41:13;;;;;;;14.65;10.30;;;15.30;99.90;;;;;;5071848;28;20039;-68
2022/10/14 08:43:47;;;;;;;14.13;9.00;;;15.40;99.90;;;;;;5065957;28;20059;-68
2022/10/14 08:46:22;;;;;;;13.90;8.38;;;15.50;99.90;;;;;;5071365;28;20477;-67
2022/10/14 08:48:53;;;;;;;13.93;8.90;;;15.50;99.90;;;;;;5070924;28;20031;-68
2022/10/14 08:51:20;;;;;;;9.77;8.40;;;15.50;99.90;;;;;;5072676;28;20398;-68
2022/10/14 08:53:55;;;;;;;11.73;8.13;;;15.50;99.90;;;;;;5070484;28;20020;-68
2022/10/14 08:56:23;;;;;;;16.67;8.80;;;15.40;99.90;;;;;;5059132;28;20031;-68
2022/10/14 08:58:50;;;;;;;9.40;7.60;;;15.50;99.90;;;;;;5070748;28;20059;-68
2022/10/14 09:01:25;;;;;;;10.85;7.45;;;15.60;99.90;;;;;;5048936;28;20070;-68
2022/10/14 09:04:04;;;;;;;9.68;8.40;;;15.60;99.90;;;;;;5071568;28;20512;-68
2022/10/14 09:06:32;;;;;;;12.77;8.30;;;15.70;99.90;;;;;;5068634;28;20017;-68
2022/10/14 09:09:10;;;;;;;10.98;8.38;;;15.50;99.90;;;;;;5071288;28;20036;-68
2022/10/14 09:11:41;;;;;;;11.93;8.57;;;15.50;99.90;;;;;;5070117;28;20395;-68
2022/10/14 09:14:12;;;;;;;11.30;8.27;;;15.70;99.90;;;;;;5071680;28;20033;-69
2022/10/14 09:16:40;;;;;;;10.38;7.38;;;15.80;99.90;;;;;;5066580;28;20028;-69
2022/10/14 09:19:17;;;;;;;9.85;7.60;;;15.60;99.90;;;;;;5071231;28;20076;-69
2022/10/14 09:21:50;;;;;;;13.85;7.65;;;15.60;99.90;;;;;;5071419;28;20017;-69
2022/10/14 09:24:20;;;;;;;12.68;7.78;;;15.60;99.90;;;;;;5064400;28;20031;-68
2022/10/14 09:26:59;;;;;;;9.68;7.63;;;15.80;99.90;;;;;;5070889;28;20036;-70
2022/10/14 09:29:28;;;;;;;10.48;7.57;;;15.80;99.90;;;;;;5053390;28;20040;-68
2022/10/14 09:32:07;;;;;;;9.60;7.90;;;15.80;99.90;;;;;;5070910;28;20496;-70
2022/10/14 09:34:54;;;;;;;11.65;7.25;;;15.90;99.90;;;;;;5069976;28;20041;-70
2022/10/14 09:37:33;;;;;;;11.82;6.93;;;16.00;99.90;;;;;;5071493;28;20089;-69
2022/10/14 09:40:25;;;;;;;7.35;6.57;;;16.00;99.90;;;;;;5073422;28;20033;-69
2022/10/14 09:43:09;;;;;;;10.05;6.38;;;15.90;99.90;;;;;;5056110;28;20068;-70
2022/10/14 09:46:20;;;;;;;8.07;6.68;;;15.90;99.90;;;;;;5075836;28;20036;-68
2022/10/14 09:48:50;;;;;;;9.05;6.10;;;15.80;99.90;;;;;;5071473;28;20036;-69
2022/10/14 09:51:27;;;;;;;8.00;6.32;;;15.70;99.90;;;;;;5075935;28;20028;-68
2022/10/14 09:53:58;;;;;;;13.15;7.18;;;15.90;99.90;;;;;;5041114;28;20147;-69
2022/10/14 09:56:33;;;;;;;8.75;7.18;;;16.00;99.90;;;;;;5075454;28;20095;-68
2022/10/14 09:59:00;;;;;;;9.93;5.65;;;16.00;99.90;;;;;;5075344;28;20073;-68
2022/10/14 10:01:39;;;;;;;9.70;6.63;;;15.70;99.90;;;;;;5057645;28;20389;-68
2022/10/14 10:04:31;;;;;;;9.80;6.10;;;15.60;99.90;;;;;;5075353;28;20062;-69
2022/10/14 10:06:58;;;;;;;8.00;6.50;;;15.60;99.90;;;;;;5044593;28;20040;-68
2022/10/14 10:09:25;;;;;;;6.88;6.18;;;15.60;99.90;;;;;;5075431;28;20422;-69
2022/10/14 10:11:51;;;;;;;7.03;5.35;;;15.60;99.90;;;;;;5075040;28;20477;-68
2022/10/14 10:14:26;;;;;;;7.90;6.47;;;15.80;99.90;;;;;;5075066;28;20358;-68
2022/10/14 10:17:07;;;;;;;7.10;6.40;;;15.80;99.90;;;;;;5069906;28;20024;-69
2022/10/14 10:19:40;;;;;;;7.20;6.28;;;15.80;99.90;;;;;;5074798;28;20040;-69
2022/10/14 10:22:18;;;;;;;7.97;5.75;;;16.00;99.90;;;;;;5075249;28;20024;-68
2022/10/14 10:24:45;;;;;;;9.27;4.68;;;16.00;99.90;;;;;;5071225;28;20661;-73
2022/10/14 10:27:25;;;;;;;4.57;4.13;;;15.80;99.90;;;;;;5074682;28;20055;-68
2022/10/14 10:29:51;;;;;;;5.13;4.40;;;15.70;99.90;;;;;;5071509;28;20028;-68
2022/10/14 10:32:29;;;;;;;4.70;4.20;;;15.70;99.90;;;;;;5074737;28;20465;-68
2022/10/14 10:35:33;;;;;;;4.53;3.90;;;15.70;99.90;;;;;;5074708;28;20422;-68
2022/10/14 10:38:05;;;;;;;5.90;3.60;;;15.70;99.90;;;;;;5064523;28;20040;-68
2022/10/14 10:40:46;;;;;;;6.60;3.90;;;15.90;99.90;;;;;;5074344;28;20028;-68
2022/10/14 10:43:49;;;;;;;4.35;3.83;;;15.90;99.90;;;;;;5056746;28;20459;-68
2022/10/14 10:46:43;;;;;;;5.90;4.20;;;16.10;99.90;;;;;;5062264;28;20819;-68
2022/10/14 10:49:31;;;;;;;7.18;4.97;;;16.00;99.90;;;;;;5074585;28;20013;-68
2022/10/14 10:52:04;;;;;;;6.18;4.82;;;16.30;99.90;;;;;;5055783;28;20028;-70
2022/10/14 10:54:42;;;;;;;11.00;5.50;;;16.30;99.90;;;;;;5074121;28;20035;-69
2022/10/14 10:57:29;;;;;;;10.07;6.97;;;16.40;99.90;;;;;;5074070;28;20040;-68
2022/10/14 10:59:58;;;;;;;8.90;7.03;;;16.50;99.90;;;;;;5061456;28;20033;-69
2022/10/14 11:02:55;;;;;;;11.38;7.47;;;16.50;99.90;;;;;;5074476;28;20358;-67
2022/10/14 11:05:37;;;;;;;12.23;8.93;;;16.80;99.90;;;;;;5045957;28;20051;-70
2022/10/14 11:12:04;;;;;;;16.25;9.25;;;16.60;99.90;;;;;;5074001;28;20025;-67
2022/10/14 11:15:07;;;;;;;14.02;10.63;;;16.50;99.90;;;;;;5056051;28;20469;-67
2022/10/14 11:17:50;;;;;;;12.40;10.10;;;16.90;99.90;;;;;;5073919;28;20087;-67
2022/10/14 11:20:45;;;;;;;12.60;10.65;;;16.80;99.90;;;;;;5061729;28;20031;-68
2022/10/14 11:23:30;;;;;;;14.32;11.18;;;17.10;99.90;;;;;;5055698;28;20089;-68
2022/10/14 11:26:04;;;;;;;15.98;12.32;;;17.20;99.90;;;;;;5073727;28;20063;-68
2022/10/14 11:28:52;;;;;;;14.52;12.02;;;17.00;99.90;;;;;;5055780;28;20473;-67
2022/10/14 11:31:39;;;;;;;18.23;13.55;;;17.20;99.90;;;;;;5073538;28;20025;-68
2022/10/14 11:34:27;;;;;;;16.65;13.80;;;17.40;99.90;;;;;;5073776;28;20094;-67
2022/10/14 11:37:05;;;;;;;15.63;12.85;;;17.60;99.90;;;;;;5073241;28;20032;-68
2022/10/14 11:39:48;;;;;;;17.05;13.27;;;17.30;99.90;;;;;;5073998;28;20075;-68
2022/10/14 11:42:29;;;;;;;17.38;14.27;;;17.00;99.90;;;;;;5073561;28;20481;-67
2022/10/14 11:45:24;;;;;;;19.50;14.75;;;16.70;99.90;;;;;;5056320;28;20415;-68
2022/10/14 11:48:02;;;;;;;21.17;14.88;;;16.80;99.90;;;;;;5043203;28;20493;-67
2022/10/14 11:50:46;;;;;;;18.42;15.32;;;16.80;99.90;;;;;;5073520;28;20024;-68
2022/10/14 11:53:26;;;;;;;27.63;17.13;;;16.90;99.90;;;;;;5073088;28;20388;-68
2022/10/14 11:56:10;;;;;;;22.80;16.50;;;16.90;99.90;;;;;;5073272;28;20051;-68
2022/10/14 11:58:38;;;;;;;23.50;18.33;;;17.00;99.90;;;;;;5073521;28;20520;-68
2022/10/14 12:01:12;;;;;;;26.52;18.17;;;16.90;99.90;;;;;;5073255;28;20020;-68
2022/10/14 12:04:01;;;;;;;30.23;19.88;;;17.10;99.90;;;;;;5073431;28;20090;-68
2022/10/14 12:06:40;;;;;;;23.77;19.73;;;17.30;99.90;;;;;;5072594;28;20028;-69
2022/10/14 12:09:37;;;;;;;28.20;21.98;;;17.50;99.90;;;;;;5055298;28;20024;-69
2022/10/14 12:12:07;;;;;;;28.23;20.88;;;17.80;99.90;;;;;;5073090;28;20468;-69
2022/10/14 12:14:44;;;;;;;25.10;20.40;;;17.80;99.90;;;;;;5072953;28;20032;-68
2022/10/14 12:17:51;;;;;;;25.15;21.13;;;18.10;99.90;;;;;;5072879;28;20504;-69
2022/10/14 12:20:26;;;;;;;28.40;21.52;;;18.10;99.90;;;;;;5055229;28;20527;-68
2022/10/14 12:22:53;;;;;;;27.27;22.35;;;18.00;99.90;;;;;;5072815;28;20063;-68
2022/10/14 12:25:22;;;;;;;27.83;22.83;;;18.10;99.90;;;;;;5072563;28;20039;-68
2022/10/14 12:27:49;;;;;;;27.45;23.08;;;18.30;99.90;;;;;;5072819;28;20025;-69
2022/10/14 12:30:39;;;;;;;29.10;23.70;;;18.60;99.90;;;;;;5055042;28;20039;-72
2022/10/14 12:33:11;;;;;;;28.13;24.25;;;18.40;99.90;;;;;;5072818;28;20021;-72
2022/10/14 12:35:44;;;;;;;30.38;26.23;;;18.00;99.90;;;;;;5072505;28;20420;-71
2022/10/14 12:38:11;;;;;;;30.15;26.65;;;18.30;99.90;;;;;;5072706;28;20041;-69
2022/10/14 12:40:38;;;;;;;33.63;28.15;;;18.50;99.90;;;;;;5073065;28;20046;-68
2022/10/14 12:43:14;;;;;;;34.92;25.73;;;18.40;99.90;;;;;;5072666;28;20066;-68
2022/10/14 12:45:48;;;;;;;30.63;25.10;;;18.60;99.90;;;;;;5072717;28;20024;-68
2022/10/14 12:48:19;;;;;;;28.25;24.75;;;19.00;99.90;;;;;;5072437;28;20032;-68
2022/10/14 12:50:47;;;;;;;29.77;25.87;;;19.00;99.90;;;;;;5054347;28;20108;-68
2022/10/14 12:53:24;;;;;;;28.25;24.27;;;19.10;99.90;;;;;;5072517;28;20033;-68
2022/10/14 12:55:54;;;;;;;30.45;22.65;;;18.60;99.90;;;;;;5072485;28;20481;-68
2022/10/14 12:58:32;;;;;;;30.92;23.38;;;18.60;99.90;;;;;;5072293;28;20033;-68
2022/10/14 13:01:27;;;;;;;28.13;23.95;;;18.70;99.90;;;;;;5072655;28;20055;-68